Herzlich willkommen!

Am freundlichen Bodensee-Flugplatz zwischen Schwarzwald, Rhein und Alpen.

Aktuelles

02.12.2021
Tankstelle
from 21/12/02 100LL not available , until further notice
— Flugleitung EDTZ
12.11.2021
Winterpause ab 17.12.´21 bis einschließlich 31.01.´22
Wir wünschen einen guten Flug ins neue Jahr und freuen uns auf ein Wiedersehen in alter Frische ab Februar!
— Flugleitung EDTZ

Persönliches

Live am Platz

Die Bilder unserer Webcams werden alle 5 Minuten aktualisiert.

Sonnenaufgang:

06:59 UTC / 07:59 Lokal

Sonnenuntergang:

16:10 UTC / 17:10 Lokal

METAR (22.01.2022 13:20 UTC):

EDNY 221320Z 20004KT 9999 OVC034 01/M02 Q1033
VFR

TAF (22.01.2022 11:00 UTC):

TAF EDNY 221100Z 2212/2312 VRB03KT 9999 BKN030 TEMPO 2212/2221 3500 -SNRA BKN012 PROB30 TEMPO 2304/2306 BKN012

Alle Angaben unverbindlich und ohne Gewähr. Zeiten genähert.

Für den Verkehrslandeplatz Konstanz werden keine offiziellen Wetterinformationen ausgegeben. Daher werden zur Orientierung Daten des nahegelegenen Flughafens Friedrichshafen dargestellt.

Das Landeentgelt kann bei uns auch mit aerops bezahlt werden. Die App für's Handy ist kostenfrei erhältlich.